• Join FlightAware (Why Join?)
  • Login
  • US Flag 
06:37AM EDT


 

Airport Tracker/Info


-or-


 

Live Flight TrackerFlight Track Log ✈ SKW6345 ✈ 14-Jun-2013 ✈ KBZN - KSFO

Flight Track Log - Related Links

Times and Time Zones

All times are in EDT time to prevent confusion due to time zone crossing. See the SKW6345 flight status page for this flight to view local times or setup timezone preferences in your user account.

Time Position Orientation Groundspeed Altitude Reporting Facility
EDT Latitude Longitude Course Direction KTS MPH feet Rate Location/Type
01:55PM 45.7039 -111.1997 228° Southwest 239 275 7,800  Level Salt Lake Center
01:56PM 45.7269 -111.5048 282° West  Level FlightAware Approximate
01:56PM 45.7067 -111.2997 272° West 250 288 11,100  Level Salt Lake Center
01:57PM 45.7371 -111.6503 288° West  Level FlightAware Approximate
01:57PM 45.6739 -111.3928 243° Southwest 269 310 13,300  Level Salt Lake Center
01:58PM 45.7669 -111.7843 288° West  Level FlightAware Approximate
01:58PM 45.6333 -111.4914 240° Southwest 282 325 15,400  Level Salt Lake Center
01:59PM 45.7967 -111.9184 288° West  Level FlightAware Approximate
01:59PM 45.5867 -111.5997 238° Southwest 308 354 16,800  Level Salt Lake Center
02:00PM 45.5364 -111.7169 239° Southwest 336 387 18,100 1,380 Climbing Salt Lake Center
02:01PM 45.4736 -111.8283 231° Southwest 356 410 19,700 1,740 Climbing Salt Lake Center
02:02PM 45.3908 -111.9553 227° Southwest 364 419 21,700 1,740 Climbing Salt Lake Center
02:03PM 45.3219 -112.0600 227° Southwest 364 419 23,300 1,560 Climbing Salt Lake Center
02:04PM 45.2539 -112.1611 226° Southwest 365 420 25,000 2,220 Climbing Salt Lake Center
02:05PM 45.1847 -112.2631 226° Southwest 328 377 28,000 2,040 Climbing Salt Lake Center
02:06PM 45.1328 -112.3431 227° Southwest 295 339 29,300 960 Climbing Salt Lake Center
02:07PM 45.0700 -112.4353 226° Southwest 291 335 30,000 540 Climbing Salt Lake Center
02:08PM 45.0144 -112.5194 227° Southwest 304 350 30,500 420 Climbing Salt Lake Center
02:09PM 44.9453 -112.6200 226° Southwest 318 366 30,900 300 Climbing Salt Lake Center
02:11PM 44.8864 -112.7081 227° Southwest 323 372 31,200 300 Climbing Salt Lake Center
02:12PM 44.8136 -112.8139 226° Southwest 336 387 31,600 300 Climbing Salt Lake Center
02:13PM 44.7519 -112.9056 227° Southwest 339 390 31,900 180 Climbing Salt Lake Center
02:14PM 44.6783 -113.0147 227° Southwest 345 397 32,000  Climbing Salt Lake Center
02:15PM 44.6203 -113.1183 232° Southwest 352 405 32,000  Level Salt Lake Center
02:16PM 44.5594 -113.2250 231° Southwest 363 418 32,000  Level Salt Lake Center
02:17PM 44.4881 -113.3494 231° Southwest 369 425 32,000  Level Salt Lake Center
02:18PM 44.4278 -113.4567 232° Southwest 367 422 32,000  Level Salt Lake Center
02:19PM 44.3536 -113.5822 230° Southwest 373 429 32,000  Level Salt Lake Center
02:20PM 44.2919 -113.6872 231° Southwest 369 425 32,000  Level Salt Lake Center
02:21PM 44.2211 -113.8092 231° Southwest 365 420 32,000  Level Salt Lake Center
02:22PM 44.1617 -113.9136 232° Southwest 361 415 32,000  Level Salt Lake Center
02:23PM 44.0939 -114.0358 232° Southwest 358 412 32,000  Level Salt Lake Center
02:24PM 44.0342 -114.1375 231° Southwest 356 410 32,000  Level Salt Lake Center
02:25PM 43.9600 -114.2594 230° Southwest 362 417 32,000  Level Salt Lake Center
02:26PM 43.9000 -114.3619 231° Southwest 358 412 32,000  Level Salt Lake Center
02:27PM 43.8319 -114.4794 231° Southwest 351 404 32,000  Level Salt Lake Center
02:28PM 43.7703 -114.5811 230° Southwest 355 409 32,000  Level Salt Lake Center
02:29PM 43.6994 -114.6978 230° Southwest 352 405 32,000  Level Salt Lake Center
02:30PM 43.6392 -114.8008 231° Southwest 356 410 32,000  Level Salt Lake Center
02:31PM 43.5786 -114.9028 231° Southwest 359 413 32,000  Level Salt Lake Center
02:32PM 43.5078 -115.0203 230° Southwest 356 410 32,000  Level Salt Lake Center
02:33PM 43.4464 -115.1219 230° Southwest 359 413 32,000  Level Salt Lake Center
02:34PM 43.3742 -115.2411 230° Southwest 360 414 32,000  Level Salt Lake Center
02:35PM 43.3117 -115.3433 230° Southwest 363 418 32,000  Level Salt Lake Center
02:36PM 43.2383 -115.4625 230° Southwest 365 420 32,000  Level Salt Lake Center
02:37PM 43.1761 -115.5642 230° Southwest 363 418 32,000  Level Salt Lake Center
02:38PM 43.1025 -115.6836 230° Southwest 366 421 32,000  Level Salt Lake Center
02:39PM 43.0389 -115.7844 229° Southwest 365 420 32,000  Level Salt Lake Center
02:41PM 42.9756 -115.8883 230° Southwest 369 425 32,000  Level Salt Lake Center
02:42PM 42.9017 -116.0072 230° Southwest 367 422 32,000  Level Salt Lake Center
02:43PM 42.8369 -116.1092 229° Southwest 370 426 32,000  Level Salt Lake Center
02:44PM 42.7619 -116.2289 230° Southwest 371 427 32,000  Level Salt Lake Center
02:45PM 42.6975 -116.3308 229° Southwest 371 427 32,000  Level Salt Lake Center
02:46PM 42.6219 -116.4503 229° Southwest 371 427 32,000  Level Salt Lake Center
02:47PM 42.5564 -116.5525 229° Southwest 375 432 32,000  Level Salt Lake Center
02:48PM 42.4803 -116.6725 229° Southwest 376 433 32,000  Level Salt Lake Center
02:49PM 42.4147 -116.7747 229° Southwest 375 432 32,000  Level Salt Lake Center
02:50PM 42.3372 -116.8967 229° Southwest 380 437 32,000  Level Salt Lake Center
02:51PM 42.2811 -117.0092 236° Southwest 377 434 32,000  Level Salt Lake Center
02:52PM 42.2247 -117.1472 241° Southwest 385 443 32,000  Level Salt Lake Center
02:53PM 42.1758 -117.2675 241° Southwest 383 441 32,000  Level Salt Lake Center
02:54PM 42.1186 -117.4072 241° Southwest 382 440 32,000  Level Salt Lake Center
02:55PM 42.0697 -117.5281 241° Southwest 384 442 32,000  Level Salt Lake Center
02:56PM 42.0214 -117.6497 242° Southwest 386 444 32,000  Level Salt Lake Center
02:57PM 41.9642 -117.7917 242° Southwest 387 445 32,000  Level Salt Lake Center
02:58PM 41.9158 -117.9128 242° Southwest 387 445 32,000  Level Salt Lake Center
02:59PM 41.8578 -118.0544 241° Southwest 387 445 32,000  Level Salt Lake Center
03:00PM 41.8089 -118.1758 242° Southwest 386 444 32,000  Level Salt Lake Center
03:01PM 41.7531 -118.3203 243° Southwest 391 450 32,000  Level Salt Lake Center
03:02PM 41.7036 -118.4450 242° Southwest 396 456 32,000  Level Salt Lake Center
03:03PM 41.6469 -118.5878 242° Southwest 392 451 32,000  Level Salt Lake Center
03:04PM 41.5767 -118.6919 228° Southwest 398 458 32,000  Level Salt Lake Center
03:05PM 41.4894 -118.8069 225° Southwest 398 458 32,000  Level Salt Lake Center
03:06PM 41.4133 -118.9042 224° Southwest 396 456 32,000  Level Salt Lake Center
03:07PM 41.3242 -119.0172 224° Southwest 397 457 32,000  Level Salt Lake Center
03:08PM 41.2481 -119.1128 223° Southwest 395 455 32,000  Level Salt Lake Center
03:10PM 41.1219 -119.2736 224° Southwest 397 457 32,000  Level Oakland Center
03:10PM 41.0819 -119.3231 223° Southwest 397 457 32,000  Level Salt Lake Center
03:12PM 40.9969 -119.4297 223° Southwest 399 459 32,000  Level Salt Lake Center
03:12PM 40.9553 -119.4833 224° Southwest 397 457 32,000  Level Oakland Center
03:13PM 40.8781 -119.5794 223° Southwest 397 457 32,000  Level Oakland Center
03:14PM 40.7869 -119.6903 223° Southwest 402 463 32,000  Level Oakland Center
03:15PM 40.7067 -119.7897 223° Southwest 399 459 32,000  Level Oakland Center
03:16PM 40.6261 -119.8892 223° Southwest 398 458 32,000  Level Oakland Center
03:17PM 40.5447 -119.9908 224° Southwest 402 463 32,000  Level Oakland Center
03:18PM 40.4617 -120.0925 223° Southwest 407 468 32,000  Level Oakland Center
03:19PM 40.3811 -120.1900 223° Southwest 399 459 32,000  Level Oakland Center
03:20PM 40.2983 -120.2903 223° Southwest 404 465 32,000  Level Oakland Center
03:21PM 40.1986 -120.4122 223° Southwest 408 470 32,000  Level Oakland Center
03:22PM 40.1147 -120.5125 222° Southwest 404 465 32,000  Level Oakland Center
03:23PM 40.0322 -120.6125 223° Southwest 405 466 32,000  Level Oakland Center
03:24PM 39.9450 -120.7161 222° Southwest 409 471 32,000  Level Oakland Center
03:25PM 39.8622 -120.8164 223° Southwest 409 471 32,000  Level Oakland Center
03:26PM 39.7783 -120.9158 222° Southwest 409 471 32,000  Level Oakland Center
03:27PM 39.6950 -121.0150 222° Southwest 407 468 32,000  Level Oakland Center
03:28PM 39.6122 -121.1128 222° Southwest 402 463 32,000  Level Oakland Center
03:29PM 39.5300 -121.2092 222° Southwest 405 466 32,000  Level Oakland Center
03:30PM 39.4436 -121.3081 221° Southwest 405 466 32,000  Level Oakland Center
03:31PM 39.3444 -121.4258 223° Southwest 404 465 32,000  Level Oakland Center
03:33PM 39.2611 -121.5242 222° Southwest 406 467 32,000  Level Oakland Center
03:34PM 39.1767 -121.6214 222° Southwest 407 468 32,000  Level Oakland Center
03:35PM 39.0931 -121.7192 222° Southwest 408 470 32,000  Level Oakland Center
03:36PM 39.0089 -121.8164 222° Southwest 407 468 32,000  Level Oakland Center
03:37PM 38.9247 -121.9128 222° Southwest 408 470 32,000  Level Oakland Center
03:38PM 38.8317 -121.9958 215° Southwest 410 472 32,000 -360 Level Oakland Center
03:39PM 38.7106 -122.0853 210° Southwest 418 481 31,300 -1,320 Descending Oakland Center
03:40PM 38.6083 -122.1572 209° Southwest 421 484 29,400 -1,860 Descending Oakland Center
03:41PM 38.5053 -122.2336 210° Southwest 427 491 27,600 -1,800 Descending Oakland Center
03:42PM 38.4028 -122.3089 210° Southwest 426 490 25,800 -2,640 Descending Oakland Center
03:43PM 38.3039 -122.3819 210° Southwest 416 479 22,300 -3,300 Descending Oakland Center
03:44PM 38.2064 -122.4531 210° Southwest 408 470 19,100 -2,880 Descending Oakland Center
03:45PM 38.1106 -122.5228 210° Southwest 398 458 16,400 -2,820 Descending Oakland Center
03:46PM 38.0103 -122.5958 210° Southwest 357 411 13,400 -2,580 Descending Oakland Center
03:47PM 37.9300 -122.6539 210° Southwest 349 402 11,200 -1,380 Descending Oakland Center
03:48PM 37.8500 -122.6167 160° South 313 360 11,000 -120 Descending Northern Cal TRACON
03:49PM 37.8000 -122.5667 142° Southeast 247 284 11,000  Level Northern Cal TRACON
03:50PM 37.7500 -122.5000 133° Southeast 263 303 11,000  Level Northern Cal TRACON
03:51PM 37.6833 -122.4500 149° Southeast 264 304 11,000  Level Northern Cal TRACON
03:52PM 37.6333 -122.3833 133° Southeast 255 293 11,000  Level Northern Cal TRACON
03:52PM 37.6197 -122.3753 155° Southeast 261 300 11,000 -540 Level Oakland Center
03:53PM 37.5833 -122.3500 151° Southeast 248 285 10,500 -1,380 Descending Northern Cal TRACON
03:54PM 37.5333 -122.3000 142° Southeast 244 281 8,900 -1,680 Descending Northern Cal TRACON
03:55PM 37.4667 -122.2667 158° South 240 276 7,400 -1,380 Descending Northern Cal TRACON
03:56PM 37.4500 -122.1833 104° East 195 224 6,100 -1,440 Descending Northern Cal TRACON
03:57PM 37.4500 -122.1333 90° East 196 226 4,400 -1,140 Descending Northern Cal TRACON
03:58PM 37.5000 -122.1333 360° North 162 186 4,000 -420 Descending Northern Cal TRACON
03:59PM 37.5167 -122.1833 293° West 160 184 3,700 -720 Descending Northern Cal TRACON
04:00PM 37.5500 -122.2167 322° Northwest 162 186 2,600 -1,140 Descending Northern Cal TRACON